Aviation Digital Data Service (ADDS)

Output produced by METARs form (1601 UTC 03 July 2020)
found at http://aviationweather.gov/metar/data/
 
METAR text: KTEX 031555Z AUTO 00000KT 10SM SCT026 BKN070 OVC085 16/03 A3053 RMK AO2
Conditions at: KTEX (TELLURIDE REGION, CO, US) observed 1555 UTC 03 July 2020
Temperature: 16.0°C (61°F)
Dewpoint: 3.0°C (37°F) [RH = 42%]
Pressure (altimeter): 30.53 inches Hg (1033.9 mb)
Winds: calm
Visibility: 10 or more miles (16+ km)
Ceiling: 7000 feet AGL
Clouds: scattered clouds at 2600 feet AGL
broken clouds at 7000 feet AGL
overcast cloud deck at 8500 feet AGL
Weather: automated observation with no human augmentation;
there may or may not be significant weather present at this time

METAR text: KTEX 031535Z AUTO 20005KT 10SM SCT034 OVC085 17/02 A3053 RMK AO2
Conditions at: KTEX (TELLURIDE REGION, CO, US) observed 1535 UTC 03 July 2020
Temperature: 17.0°C (63°F)
Dewpoint: 2.0°C (36°F) [RH = 36%]
Pressure (altimeter): 30.53 inches Hg (1033.9 mb)
Winds: from the SSW (200 degrees) at 6 MPH (5 knots; 2.6 m/s)
Visibility: 10 or more miles (16+ km)
Ceiling: 8500 feet AGL
Clouds: scattered clouds at 3400 feet AGL
overcast cloud deck at 8500 feet AGL
Weather: automated observation with no human augmentation;
there may or may not be significant weather present at this time

METAR text: KTEX 031515Z AUTO 00000KT 10SM OVC095 17/02 A3052 RMK AO2
Conditions at: KTEX (TELLURIDE REGION, CO, US) observed 1515 UTC 03 July 2020
Temperature: 17.0°C (63°F)
Dewpoint: 2.0°C (36°F) [RH = 36%]
Pressure (altimeter): 30.52 inches Hg (1033.6 mb)
Winds: calm
Visibility: 10 or more miles (16+ km)
Ceiling: 9500 feet AGL
Clouds: overcast cloud deck at 9500 feet AGL
Weather: automated observation with no human augmentation;
there may or may not be significant weather present at this time

Forecast for: KTEX (TELLURIDE REGION, CO, US)
Text: KTEX 031125Z 0312/0412 14005KT P6SM SCT080 SCT110
Forecast period: 1200 to 1600 UTC 03 July 2020
Forecast type: FROM: standard forecast or significant change
Winds: from the SE (140 degrees) at 6 MPH (5 knots; 2.6 m/s)
Visibility: 6 or more miles 10+ km)
Ceiling: at least 12,000 feet AGL
Clouds: scattered clouds at 8000 feet AGL
scattered clouds at 11000 feet AGL
Weather: no significant weather forecast for this period
Text: FM031600 19005KT P6SM SCT080 BKN110
Forecast period: 1600 to 1800 UTC 03 July 2020
Forecast type: FROM: standard forecast or significant change
Winds: from the S (190 degrees) at 6 MPH (5 knots; 2.6 m/s)
Visibility: 6 or more miles 10+ km)
Ceiling: 11000 feet AGL
Clouds: scattered clouds at 8000 feet AGL
broken clouds at 11000 feet AGL
Weather: no significant weather forecast for this period
Text: FM031800 20007KT P6SM VCTS SCT070CB BKN100
Forecast period: 1800 UTC 03 July 2020 to 0100 UTC 04 July 2020
Forecast type: FROM: standard forecast or significant change
Winds: from the SSW (200 degrees) at 8 MPH (7 knots; 3.6 m/s)
Visibility: 6 or more miles 10+ km)
Ceiling: 10000 feet AGL
Clouds: scattered clouds at 7000 feet AGL
broken clouds at 10000 feet AGL
Weather: VCTS  (thunderstorm in vicinity)
Text: FM040100 14005KT P6SM SCT060
Forecast period: 0100 to 0600 UTC 04 July 2020
Forecast type: FROM: standard forecast or significant change
Winds: from the SE (140 degrees) at 6 MPH (5 knots; 2.6 m/s)
Visibility: 6 or more miles 10+ km)
Ceiling: at least 12,000 feet AGL
Clouds: scattered clouds at 6000 feet AGL
Weather: no significant weather forecast for this period
Text: FM040600 14004KT P6SM SCT080
Forecast period: 0600 to 1200 UTC 04 July 2020
Forecast type: FROM: standard forecast or significant change
Winds: from the SE (140 degrees) at 5 MPH (4 knots; 2.1 m/s)
Visibility: 6 or more miles 10+ km)
Ceiling: at least 12,000 feet AGL
Clouds: scattered clouds at 8000 feet AGL
Weather: no significant weather forecast for this period